Time;durP1;ratioP1;P1;durP2;ratioP2;P2;SDS_P1;SDS_P2;PMS_P1;PMS_P2;Temp;Humidity;BMP_temperature;BMP_pressure;BME280_temperature;BME280_humidity;BME280_pressure;Samples;Min_cycle;Max_cycle;Signal;HPM_P1;HPM_P2
2022/03/01 00:01:41;;;;;;;14.55;8.98;;;2.70;99.90;;;;;;2114331;67;20284;-85
2022/03/01 00:04:25;;;;;;;13.45;8.70;;;2.70;99.90;;;;;;2121421;67;20829;-86
2022/03/01 00:07:12;;;;;;;18.58;9.98;;;2.90;99.90;;;;;;2113973;67;20338;-86
2022/03/01 00:09:56;;;;;;;13.77;9.25;;;2.60;99.90;;;;;;2121237;67;20315;-85
2022/03/01 00:12:38;;;;;;;13.18;8.85;;;2.60;99.90;;;;;;2097639;68;20272;-85
2022/03/01 00:15:20;;;;;;;11.88;8.45;;;2.50;99.90;;;;;;2107071;67;20208;-85
2022/03/01 00:18:02;;;;;;;14.13;9.13;;;2.50;99.90;;;;;;2099193;68;20331;-86
2022/03/01 00:20:44;;;;;;;12.23;7.72;;;2.50;99.90;;;;;;2092818;68;20168;-86
2022/03/01 00:23:26;;;;;;;11.93;8.13;;;2.50;99.90;;;;;;2099004;68;20391;-86
2022/03/01 00:26:12;;;;;;;11.95;7.55;;;2.50;99.90;;;;;;2099806;68;20304;-86
2022/03/01 00:28:58;;;;;;;12.70;8.25;;;2.50;99.90;;;;;;2105243;68;20734;-85
2022/03/01 00:31:44;;;;;;;15.40;8.55;;;2.30;99.90;;;;;;2093542;68;20254;-86
2022/03/01 00:34:29;;;;;;;13.13;8.32;;;2.50;99.90;;;;;;2092384;68;20183;-85
2022/03/01 00:37:11;;;;;;;10.05;7.30;;;2.50;99.90;;;;;;2117445;67;20280;-84
2022/03/01 00:39:53;;;;;;;12.15;8.13;;;2.50;99.90;;;;;;2106609;68;20194;-85
2022/03/01 00:42:39;;;;;;;14.27;7.65;;;2.50;99.90;;;;;;2102851;67;20206;-85
2022/03/01 00:45:21;;;;;;;11.38;7.97;;;2.50;99.90;;;;;;2117472;67;22166;-84
2022/03/01 00:48:04;;;;;;;10.75;8.05;;;2.40;99.90;;;;;;2115960;67;20773;-84
2022/03/01 00:50:45;;;;;;;11.70;7.78;;;2.40;99.90;;;;;;2116557;67;20325;-85
2022/03/01 00:53:27;;;;;;;12.45;7.75;;;2.20;99.90;;;;;;2105052;68;20307;-85
2022/03/01 00:56:10;;;;;;;10.57;7.75;;;2.40;99.90;;;;;;2108450;67;20178;-86
2022/03/01 00:58:52;;;;;;;11.57;7.93;;;2.40;99.90;;;;;;2100246;68;20763;-85
2022/03/01 01:01:34;;;;;;;12.40;8.13;;;2.40;99.90;;;;;;2106875;67;20472;-85
2022/03/01 01:04:16;;;;;;;12.35;7.80;;;2.20;99.90;;;;;;2104177;68;20166;-85
2022/03/01 01:06:59;;;;;;;14.38;7.72;;;2.40;99.90;;;;;;2107564;67;20537;-86
2022/03/01 01:09:40;;;;;;;12.00;8.48;;;2.30;99.90;;;;;;2113088;67;20207;-86
2022/03/01 01:12:23;;;;;;;11.07;7.30;;;2.60;99.90;;;;;;2114873;67;20301;-84
2022/03/01 01:15:09;;;;;;;12.85;7.47;;;2.30;99.90;;;;;;2126957;67;20184;-86
2022/03/01 01:17:53;;;;;;;12.43;8.30;;;2.40;99.90;;;;;;2119606;67;20210;-86
2022/03/01 01:20:35;;;;;;;11.20;8.02;;;2.30;99.90;;;;;;2119089;67;20410;-85
2022/03/01 01:23:16;;;;;;;10.60;7.90;;;2.80;99.90;;;;;;2115784;67;20251;-85
2022/03/01 01:25:59;;;;;;;11.65;7.53;;;2.30;99.90;;;;;;2117315;67;20953;-85
2022/03/01 01:28:41;;;;;;;10.90;7.60;;;2.70;99.90;;;;;;2104717;67;20189;-85
2022/03/01 01:31:26;;;;;;;13.30;7.10;;;2.40;99.90;;;;;;2104591;67;20226;-85
2022/03/01 01:34:11;;;;;;;11.77;7.68;;;2.30;99.90;;;;;;2093001;68;20345;-84
2022/03/01 01:36:53;;;;;;;10.57;7.17;;;2.30;99.90;;;;;;2104494;68;20447;-85
2022/03/01 01:39:35;;;;;;;9.68;7.32;;;2.40;99.90;;;;;;2104264;68;20194;-85
2022/03/01 01:42:17;;;;;;;12.27;7.13;;;2.80;99.90;;;;;;2091058;67;20323;-86
2022/03/01 01:44:59;;;;;;;11.02;7.65;;;2.30;99.90;;;;;;2104517;68;20274;-86
2022/03/01 01:47:41;;;;;;;11.10;7.18;;;2.40;99.90;;;;;;2104462;68;20331;-86
2022/03/01 01:50:24;;;;;;;13.10;7.47;;;2.50;99.90;;;;;;2102954;68;20254;-86
2022/03/01 01:53:08;;;;;;;11.32;7.43;;;2.50;99.90;;;;;;2104646;67;20260;-86
2022/03/01 01:55:52;;;;;;;12.00;7.60;;;3.30;99.90;;;;;;2111957;67;20181;-86
2022/03/01 01:58:36;;;;;;;13.25;7.30;;;3.10;99.90;;;;;;2111725;67;20301;-85
2022/03/01 02:01:18;;;;;;;14.30;7.82;;;2.60;99.90;;;;;;2097899;68;20207;-86
2022/03/01 02:04:03;;;;;;;9.98;7.32;;;2.60;99.90;;;;;;2119284;67;20326;-85
2022/03/01 02:06:54;;;;;;;13.35;6.88;;;2.60;99.90;;;;;;2115196;67;20318;-85
2022/03/01 02:09:38;;;;;;;10.98;7.43;;;2.60;99.90;;;;;;2110968;67;20185;-85
2022/03/01 02:12:22;;;;;;;10.40;7.32;;;2.60;99.90;;;;;;2111616;67;20440;-85
2022/03/01 02:15:05;;;;;;;11.25;7.47;;;2.50;99.90;;;;;;2119581;67;20181;-85
2022/03/01 02:17:48;;;;;;;11.15;7.30;;;2.50;99.90;;;;;;2125982;67;20250;-85
2022/03/01 02:20:33;;;;;;;11.32;7.22;;;2.70;99.90;;;;;;2135308;66;20168;-85
2022/03/01 02:23:16;;;;;;;12.63;7.55;;;2.60;99.90;;;;;;2154038;66;20281;-85
2022/03/01 02:26:02;;;;;;;10.48;7.03;;;2.60;99.90;;;;;;2134601;67;20168;-85
2022/03/01 02:28:46;;;;;;;13.10;8.32;;;2.60;99.90;;;;;;2130248;67;20286;-85
2022/03/01 02:31:29;;;;;;;11.43;7.10;;;3.10;99.90;;;;;;2114569;67;20244;-85
2022/03/01 02:34:11;;;;;;;11.40;7.25;;;2.60;99.90;;;;;;2085639;68;20837;-85
2022/03/01 02:36:54;;;;;;;12.32;7.78;;;2.60;99.90;;;;;;2093257;68;20355;-85
2022/03/01 02:39:39;;;;;;;11.32;8.00;;;2.60;99.90;;;;;;2067777;69;20277;-85
2022/03/01 02:42:27;;;;;;;13.23;8.00;;;2.60;99.90;;;;;;2090395;68;20287;-85
2022/03/01 02:45:17;;;;;;;12.23;8.35;;;2.60;99.90;;;;;;2100591;68;20314;-85
2022/03/01 02:47:59;;;;;;;10.10;7.20;;;2.60;99.90;;;;;;2102393;68;20329;-86
2022/03/01 02:50:42;;;;;;;11.13;7.55;;;2.60;99.90;;;;;;2091715;68;20208;-84
2022/03/01 02:53:24;;;;;;;10.95;7.30;;;2.60;99.90;;;;;;2095847;68;20239;-85
2022/03/01 02:56:08;;;;;;;12.32;7.63;;;3.10;99.90;;;;;;2100848;68;20307;-86
2022/03/01 02:58:55;;;;;;;;;;;2.60;99.90;;;;;;2102103;68;20274;-85
2022/03/01 03:01:37;;;;;;;12.15;7.72;;;2.60;99.90;;;;;;2109341;67;20050;-86
2022/03/01 03:04:19;;;;;;;11.48;7.75;;;2.60;99.90;;;;;;2103130;68;20304;-86
2022/03/01 03:07:02;;;;;;;13.93;8.00;;;2.60;99.90;;;;;;2115995;67;20322;-86
2022/03/01 03:09:44;;;;;;;13.35;8.23;;;2.60;99.90;;;;;;2109589;67;20340;-86
2022/03/01 03:12:29;;;;;;;12.18;7.55;;;2.60;99.90;;;;;;2097046;68;20242;-85
2022/03/01 03:15:12;;;;;;;13.23;7.75;;;2.50;99.90;;;;;;2103475;67;20882;-84
2022/03/01 03:17:57;;;;;;;9.18;7.20;;;2.40;99.90;;;;;;2112650;67;20261;-85
2022/03/01 03:20:39;;;;;;;12.15;8.27;;;2.50;99.90;;;;;;2111860;67;20315;-85
2022/03/01 03:23:21;;;;;;;15.63;7.95;;;2.50;99.90;;;;;;2108905;67;20761;-85
2022/03/01 03:26:02;;;;;;;11.35;8.02;;;2.40;99.90;;;;;;2103357;68;20711;-84
2022/03/01 03:28:44;;;;;;;12.13;8.65;;;2.40;99.90;;;;;;2098631;68;20339;-85
2022/03/01 03:31:30;;;;;;;9.82;7.63;;;2.40;99.90;;;;;;2095260;68;20916;-86
2022/03/01 03:34:15;;;;;;;10.95;7.88;;;2.40;99.90;;;;;;2106071;67;20186;-84
2022/03/01 03:36:58;;;;;;;9.68;7.43;;;2.40;99.90;;;;;;2099278;68;20537;-84
2022/03/01 03:39:43;;;;;;;10.40;7.35;;;2.90;99.90;;;;;;2087562;68;20215;-84
2022/03/01 03:42:30;;;;;;;12.32;7.50;;;2.40;99.90;;;;;;2098654;68;20269;-84
2022/03/01 03:45:16;;;;;;;11.73;8.20;;;2.40;99.90;;;;;;2092263;68;20179;-85
2022/03/01 03:48:02;;;;;;;15.15;8.70;;;2.40;99.90;;;;;;2087350;68;20210;-84
2022/03/01 03:50:47;;;;;;;;;;;2.50;99.90;;;;;;2086121;68;20209;-84
2022/03/01 03:53:28;;;;;;;11.95;8.40;;;2.40;99.90;;;;;;2098643;68;20109;-85
2022/03/01 03:56:12;;;;;;;13.73;8.25;;;2.80;99.90;;;;;;2092384;68;20201;-84
2022/03/01 03:58:58;;;;;;;11.50;8.15;;;2.60;99.90;;;;;;2098832;68;20226;-84
2022/03/01 04:01:42;;;;;;;10.95;8.10;;;2.50;99.90;;;;;;2081822;68;20768;-85
2022/03/01 04:04:25;;;;;;;11.75;8.45;;;2.40;99.90;;;;;;2076702;68;20244;-85
2022/03/01 04:07:09;;;;;;;12.18;8.48;;;2.40;99.90;;;;;;2074699;68;20265;-85
2022/03/01 04:09:53;;;;;;;13.85;8.52;;;2.40;99.90;;;;;;2078816;68;20182;-86
2022/03/01 04:12:35;;;;;;;12.00;8.10;;;2.40;99.90;;;;;;2072507;69;20412;-84
2022/03/01 04:15:16;;;;;;;14.52;8.60;;;2.40;99.90;;;;;;2076348;68;20498;-85
2022/03/01 04:18:02;;;;;;;11.65;8.23;;;2.30;99.90;;;;;;2070068;69;20323;-85
2022/03/01 04:20:45;;;;;;;12.25;7.82;;;2.30;99.90;;;;;;2058791;69;20748;-86
2022/03/01 04:23:32;;;;;;;;;;;2.30;99.90;;;;;;2060946;69;20322;-85
2022/03/01 04:26:14;;;;;;;12.63;8.38;;;2.30;99.90;;;;;;2044804;70;20241;-85
2022/03/01 04:28:55;;;;;;;12.48;8.25;;;2.60;99.90;;;;;;2056553;69;20613;-86
2022/03/01 04:31:38;;;;;;;11.20;8.05;;;2.40;99.90;;;;;;2060216;69;20314;-84
2022/03/01 04:34:23;;;;;;;12.23;8.68;;;2.40;99.90;;;;;;2068353;69;20358;-84
2022/03/01 04:37:06;;;;;;;14.27;8.80;;;2.40;99.90;;;;;;2076243;68;20264;-84
2022/03/01 04:39:55;;;;;;;11.52;8.15;;;2.50;99.90;;;;;;2092450;68;20662;-86
2022/03/01 04:42:39;;;;;;;12.20;8.25;;;2.60;99.90;;;;;;2098712;68;20657;-85
2022/03/01 04:45:21;;;;;;;14.63;8.45;;;2.60;99.90;;;;;;2104750;67;20190;-85
2022/03/01 04:48:04;;;;;;;13.20;8.93;;;2.60;99.90;;;;;;2115765;67;20294;-85
2022/03/01 04:50:49;;;;;;;11.07;8.10;;;2.70;99.90;;;;;;2116136;67;20218;-86
2022/03/01 04:53:32;;;;;;;12.60;8.68;;;2.70;99.90;;;;;;2114133;67;20253;-84
2022/03/01 04:56:14;;;;;;;15.13;8.90;;;2.70;99.90;;;;;;2110632;67;20244;-84
2022/03/01 04:58:57;;;;;;;13.43;8.45;;;2.70;99.90;;;;;;2102281;68;20131;-84
2022/03/01 05:01:43;;;;;;;14.13;8.68;;;2.70;99.90;;;;;;2095454;68;20267;-85
2022/03/01 05:04:27;;;;;;;;;;;2.70;99.90;;;;;;2079409;68;20412;-84
2022/03/01 05:07:10;;;;;;;14.93;8.82;;;2.50;99.90;;;;;;2086234;68;20110;-84
2022/03/01 05:09:52;;;;;;;12.70;8.88;;;2.80;99.90;;;;;;2089214;68;20350;-84
2022/03/01 05:12:49;;;;;;;14.73;8.40;;;2.80;99.90;;;;;;2075555;68;20181;-84
2022/03/01 05:15:31;;;;;;;13.70;9.07;;;2.80;99.90;;;;;;2098893;68;20374;-84
2022/03/01 05:18:13;;;;;;;12.60;8.80;;;2.80;99.90;;;;;;2102253;67;20187;-84
2022/03/01 05:20:55;;;;;;;11.90;8.63;;;2.80;99.90;;;;;;2100444;68;20602;-84
2022/03/01 05:23:37;;;;;;;14.77;8.95;;;2.80;99.90;;;;;;2093093;68;20345;-84
2022/03/01 05:26:20;;;;;;;13.18;8.35;;;2.80;99.90;;;;;;2080774;68;20253;-85
2022/03/01 05:29:02;;;;;;;17.67;9.07;;;3.30;99.90;;;;;;2108182;67;20209;-84
2022/03/01 05:31:44;;;;;;;14.75;9.27;;;2.90;99.90;;;;;;2096057;68;20175;-84
2022/03/01 05:34:26;;;;;;;14.90;9.90;;;3.10;99.90;;;;;;2120819;67;20337;-84
2022/03/01 05:37:08;;;;;;;13.23;8.38;;;2.90;99.90;;;;;;2118241;67;20337;-84
2022/03/01 05:39:50;;;;;;;13.55;8.50;;;2.90;99.90;;;;;;2115935;67;20353;-84
2022/03/01 05:42:32;;;;;;;14.82;9.55;;;2.80;99.90;;;;;;2091270;68;20730;-84
2022/03/01 05:45:14;;;;;;;16.20;9.15;;;2.90;99.90;;;;;;2070940;69;20193;-84
2022/03/01 05:47:56;;;;;;;13.43;8.63;;;2.90;99.90;;;;;;2077149;69;20232;-84
2022/03/01 05:50:40;;;;;;;14.13;8.60;;;2.90;99.90;;;;;;2085044;68;20245;-84
2022/03/01 05:53:21;;;;;;;17.25;9.38;;;2.90;99.90;;;;;;2087555;68;20895;-84
2022/03/01 05:56:05;;;;;;;13.70;10.30;;;2.90;99.90;;;;;;2087489;68;20321;-85
2022/03/01 05:58:50;;;;;;;15.80;9.80;;;2.90;99.90;;;;;;2077234;69;20219;-85
2022/03/01 06:01:33;;;;;;;14.70;8.80;;;3.00;99.90;;;;;;2076466;69;20713;-84
2022/03/01 06:04:18;;;;;;;16.05;9.93;;;3.00;99.90;;;;;;2077793;69;20325;-84
2022/03/01 06:07:00;;;;;;;12.93;8.52;;;3.00;99.90;;;;;;2084721;68;20276;-84
2022/03/01 06:09:42;;;;;;;16.15;9.77;;;3.20;99.90;;;;;;2080071;68;20802;-84
2022/03/01 06:12:23;;;;;;;15.48;9.00;;;3.00;99.90;;;;;;2089491;68;20191;-84
2022/03/01 06:15:06;;;;;;;20.85;10.35;;;3.00;99.90;;;;;;2104549;67;20409;-84
2022/03/01 06:17:49;;;;;;;15.02;9.27;;;3.00;99.90;;;;;;2094027;68;20339;-83
2022/03/01 06:20:31;;;;;;;16.80;9.57;;;3.00;99.90;;;;;;2107851;67;20319;-83
2022/03/01 06:23:17;;;;;;;17.05;9.45;;;3.00;99.90;;;;;;2108063;67;20174;-84
2022/03/01 06:26:05;;;;;;;20.05;9.98;;;3.10;99.90;;;;;;2114655;67;20181;-84
2022/03/01 06:28:50;;;;;;;16.40;9.85;;;2.00;99.90;;;;;;2096874;68;20924;-85
2022/03/01 06:31:32;;;;;;;21.10;10.05;;;3.10;99.90;;;;;;2100990;68;20842;-84
2022/03/01 06:34:14;;;;;;;21.75;10.73;;;3.10;99.90;;;;;;2083867;68;20188;-84
2022/03/01 06:36:58;;;;;;;24.60;9.82;;;3.10;99.90;;;;;;2098710;68;20243;-84
2022/03/01 06:39:46;;;;;;;17.95;10.57;;;3.10;99.90;;;;;;2098385;68;20235;-84
2022/03/01 06:42:31;;;;;;;18.52;10.32;;;3.60;99.90;;;;;;2094005;68;20171;-85
2022/03/01 06:45:13;;;;;;;18.40;9.57;;;2.90;99.90;;;;;;2100229;68;20187;-83
2022/03/01 06:48:00;;;;;;;22.38;10.15;;;3.20;99.90;;;;;;2098236;68;20319;-83
2022/03/01 06:50:44;;;;;;;;;;;3.20;99.90;;;;;;2091610;68;27930;-85
2022/03/01 06:53:26;;;;;;;15.95;9.90;;;3.20;99.90;;;;;;2062957;69;20149;-84
2022/03/01 06:56:08;;;;;;;16.30;10.40;;;3.90;99.90;;;;;;2064218;69;20182;-84
2022/03/01 06:58:50;;;;;;;13.43;9.98;;;3.30;99.90;;;;;;2066275;69;20198;-84
2022/03/01 07:01:34;;;;;;;14.85;10.38;;;3.30;99.90;;;;;;2086225;68;20224;-84
2022/03/01 07:04:22;;;;;;;16.10;10.65;;;3.40;99.90;;;;;;2093223;68;20378;-86
2022/03/01 07:07:06;;;;;;;17.17;10.10;;;3.40;99.90;;;;;;2081696;68;20320;-85
2022/03/01 07:09:50;;;;;;;18.50;10.05;;;3.50;99.90;;;;;;2087610;68;20342;-83
2022/03/01 07:12:32;;;;;;;23.35;10.43;;;3.40;99.90;;;;;;2101885;67;20339;-83
2022/03/01 07:15:14;;;;;;;16.02;9.82;;;3.60;99.90;;;;;;2112414;67;20182;-83
2022/03/01 07:17:56;;;;;;;14.30;9.93;;;3.70;99.90;;;;;;2127498;67;20184;-85
2022/03/01 07:20:38;;;;;;;16.75;10.43;;;3.70;99.90;;;;;;2111290;67;20658;-84
2022/03/01 07:23:23;;;;;;;16.05;10.02;;;3.70;99.90;;;;;;2105924;68;20198;-84
2022/03/01 07:26:01;;;;;;;18.00;10.20;;;3.80;99.90;;;;;;2098923;67;20216;-84
2022/03/01 07:28:38;;;;;;;16.67;9.65;;;3.90;99.90;;;;;;2114858;67;20212;-85
2022/03/01 07:31:35;;;;;;;18.75;9.68;;;4.80;99.90;;;;;;2106863;67;20189;-84
2022/03/01 07:34:20;;;;;;;15.03;9.33;;;4.00;99.90;;;;;;2102583;67;20380;-85
2022/03/01 07:36:56;;;;;;;12.60;9.60;;;4.00;99.90;;;;;;2103192;67;20517;-84
2022/03/01 07:39:35;;;;;;;15.98;9.75;;;4.10;99.90;;;;;;2104157;67;20372;-85
2022/03/01 07:42:11;;;;;;;16.17;10.35;;;4.10;99.90;;;;;;2110276;67;20219;-83
2022/03/01 07:44:49;;;;;;;13.48;9.52;;;4.10;99.90;;;;;;2130950;67;20267;-83
2022/03/01 07:47:28;;;;;;;14.98;9.98;;;4.20;99.90;;;;;;2148912;66;20232;-84
2022/03/01 07:50:10;;;;;;;15.85;10.18;;;4.20;99.90;;;;;;2151505;66;20185;-84
2022/03/01 07:53:05;;;;;;;13.95;9.23;;;4.30;99.90;;;;;;2177772;65;20203;-84
2022/03/01 07:55:59;;;;;;;17.80;9.95;;;4.30;99.90;;;;;;2197608;65;20190;-84
2022/03/01 07:58:38;;;;;;;15.15;10.60;;;4.40;99.90;;;;;;2200964;65;20615;-84
2022/03/01 08:01:16;;;;;;;17.55;10.02;;;5.50;99.90;;;;;;2202084;65;20333;-84
2022/03/01 08:03:55;;;;;;;14.88;9.55;;;4.40;99.90;;;;;;2197056;65;20170;-83
2022/03/01 08:06:32;;;;;;;13.90;9.60;;;5.00;99.90;;;;;;2194947;65;20713;-84
2022/03/01 08:09:11;;;;;;;16.30;9.70;;;4.50;99.90;;;;;;2196548;65;20169;-85
2022/03/01 08:12:04;;;;;;;17.58;9.88;;;4.50;99.90;;;;;;2180782;65;20318;-81
2022/03/01 08:14:43;;;;;;;13.65;9.75;;;4.50;99.90;;;;;;2182798;65;20717;-81
2022/03/01 08:17:20;;;;;;;15.52;9.88;;;4.60;99.90;;;;;;2187191;65;20706;-76
2022/03/01 08:19:59;;;;;;;16.38;10.70;;;4.60;99.90;;;;;;2183205;65;20244;-75
2022/03/01 08:22:50;;;;;;;15.25;9.73;;;4.70;99.90;;;;;;2179439;65;20289;-76
2022/03/01 08:25:40;;;;;;;17.10;11.45;;;4.70;99.90;;;;;;2184916;65;20712;-78
2022/03/01 08:28:21;;;;;;;16.75;10.63;;;4.70;99.90;;;;;;2169653;66;20264;-74
2022/03/01 08:31:03;;;;;;;19.38;10.80;;;4.80;99.90;;;;;;2164403;66;20263;-75
2022/03/01 08:33:46;;;;;;;15.85;9.75;;;4.80;99.90;;;;;;2148547;66;20745;-75
2022/03/01 08:36:33;;;;;;;18.50;10.25;;;4.80;99.90;;;;;;2135694;67;20255;-76
2022/03/01 08:39:17;;;;;;;16.65;11.02;;;4.80;99.90;;;;;;2125930;67;20418;-76
2022/03/01 08:41:59;;;;;;;15.50;9.82;;;4.90;99.90;;;;;;2121624;67;20248;-76
2022/03/01 08:44:41;;;;;;;14.85;10.32;;;4.90;99.90;;;;;;2126793;67;20268;-77
2022/03/01 08:47:25;;;;;;;13.50;9.77;;;5.40;99.90;;;;;;2121716;67;20359;-78
2022/03/01 08:50:11;;;;;;;15.27;10.35;;;5.20;99.40;;;;;;2115078;67;20205;-77
2022/03/01 08:52:57;;;;;;;14.25;10.13;;;5.20;99.30;;;;;;2120272;67;20265;-78
2022/03/01 08:55:39;;;;;;;16.75;10.23;;;5.40;99.10;;;;;;2113566;67;20221;-78
2022/03/01 08:58:23;;;;;;;14.68;10.10;;;5.50;97.70;;;;;;2114435;67;20244;-79
2022/03/01 09:01:08;;;;;;;15.40;10.15;;;5.50;97.00;;;;;;2108025;68;20466;-76
2022/03/01 09:03:55;;;;;;;16.63;10.85;;;5.70;96.80;;;;;;2106368;68;20186;-75
2022/03/01 09:06:41;;;;;;;15.05;11.63;;;5.80;95.90;;;;;;2105488;68;20190;-77
2022/03/01 09:09:26;;;;;;;15.18;10.35;;;5.80;96.30;;;;;;2111445;67;20169;-76
2022/03/01 09:12:08;;;;;;;13.32;9.88;;;5.90;95.90;;;;;;2105388;68;20765;-78
2022/03/01 09:14:50;;;;;;;16.15;10.77;;;6.00;96.10;;;;;;2106135;67;20237;-77
2022/03/01 09:17:37;;;;;;;16.57;11.17;;;6.10;95.50;;;;;;2113844;67;20747;-78
2022/03/01 09:20:29;;;;;;;13.85;10.30;;;6.30;95.20;;;;;;2126187;67;20188;-78
2022/03/01 09:23:11;;;;;;;18.05;11.13;;;6.40;94.60;;;;;;2110797;67;20237;-78
2022/03/01 09:25:52;;;;;;;14.63;10.73;;;6.30;94.60;;;;;;2105158;67;20191;-76
2022/03/01 09:28:34;;;;;;;12.73;10.32;;;6.40;94.40;;;;;;2106783;67;20210;-78
2022/03/01 09:31:19;;;;;;;17.55;11.63;;;6.50;94.70;;;;;;2105929;67;20399;-79
2022/03/01 09:34:01;;;;;;;14.07;10.93;;;6.60;93.50;;;;;;2099128;68;20186;-80
2022/03/01 09:36:42;;;;;;;15.68;10.63;;;6.80;93.30;;;;;;2104574;68;20223;-80
2022/03/01 09:39:24;;;;;;;15.55;10.48;;;6.90;92.50;;;;;;2104704;68;20264;-78
2022/03/01 09:42:08;;;;;;;20.17;10.85;;;6.60;92.20;;;;;;2097457;68;20257;-79
2022/03/01 09:44:49;;;;;;;15.65;10.73;;;6.60;92.10;;;;;;2098364;68;20179;-79
2022/03/01 09:47:33;;;;;;;19.17;11.07;;;6.50;92.00;;;;;;2078650;69;20291;-76
2022/03/01 09:50:16;;;;;;;;;;;6.50;91.80;;;;;;2072435;69;20209;-77
2022/03/01 09:52:59;;;;;;;15.15;9.95;;;6.50;92.00;;;;;;2091641;68;20055;-78
2022/03/01 09:55:45;;;;;;;15.75;11.13;;;6.50;91.90;;;;;;2088621;68;20205;-78
2022/03/01 09:58:26;;;;;;;15.95;11.10;;;6.70;91.90;;;;;;2077751;68;20181;-80
2022/03/01 10:01:09;;;;;;;16.55;10.93;;;6.80;92.00;;;;;;2079963;68;20445;-78
2022/03/01 10:04:05;;;;;;;16.65;11.27;;;6.90;91.60;;;;;;2084201;68;20192;-80
2022/03/01 10:06:48;;;;;;;19.30;11.15;;;7.00;91.00;;;;;;2087442;68;20434;-76
2022/03/01 10:09:32;;;;;;;14.60;11.30;;;7.10;90.80;;;;;;2073333;69;20213;-76
2022/03/01 10:12:26;;;;;;;16.48;10.57;;;7.30;90.70;;;;;;2077094;68;20176;-77
2022/03/01 10:15:10;;;;;;;14.88;10.27;;;7.40;90.10;;;;;;2070931;69;20360;-78
2022/03/01 10:17:52;;;;;;;17.23;11.60;;;7.50;89.50;;;;;;2064723;69;20455;-77
2022/03/01 10:20:34;;;;;;;15.13;11.50;;;7.70;87.60;;;;;;2084506;68;20245;-79
2022/03/01 10:23:22;;;;;;;16.23;11.18;;;7.90;87.70;;;;;;2095159;68;20251;-76
2022/03/01 10:26:21;;;;;;;16.50;10.93;;;8.20;84.10;;;;;;2091245;68;20187;-77
2022/03/01 10:29:08;;;;;;;16.73;11.75;;;8.30;83.70;;;;;;2091754;68;20172;-76
2022/03/01 10:31:55;;;;;;;15.43;11.30;;;8.60;83.00;;;;;;2086003;68;20236;-76
2022/03/01 10:34:44;;;;;;;14.38;10.82;;;8.80;81.80;;;;;;2086091;68;20372;-76
2022/03/01 10:37:29;;;;;;;16.60;10.95;;;9.00;79.40;;;;;;2087742;68;20263;-77
2022/03/01 10:40:16;;;;;;;13.25;10.70;;;9.00;76.10;;;;;;2086454;68;20220;-79
2022/03/01 10:43:09;;;;;;;15.88;11.73;;;8.90;75.90;;;;;;2090177;68;20308;-77
2022/03/01 10:45:56;;;;;;;15.15;11.63;;;8.80;75.90;;;;;;2096397;68;20230;-79
2022/03/01 10:48:38;;;;;;;15.70;12.27;;;8.80;75.60;;;;;;2106504;67;20382;-85
2022/03/01 10:51:20;;;;;;;19.08;11.43;;;8.10;75.50;;;;;;2101829;67;20202;-79
2022/03/01 10:54:02;;;;;;;17.88;11.77;;;9.50;76.90;;;;;;2102713;67;20233;-79
2022/03/01 10:56:44;;;;;;;17.55;12.50;;;9.00;76.20;;;;;;2107292;67;20169;-80
2022/03/01 10:59:30;;;;;;;17.80;11.65;;;9.10;76.40;;;;;;2117229;67;20410;-80
2022/03/01 11:02:12;;;;;;;;;;;8.50;76.00;;;;;;2112258;67;20191;-80
2022/03/01 11:04:54;;;;;;;14.60;11.35;;;9.00;75.20;;;;;;2123995;67;20125;-79
2022/03/01 11:07:36;;;;;;;13.48;10.68;;;9.10;76.30;;;;;;2111110;67;20211;-78
2022/03/01 11:10:12;;;;;;;15.45;11.60;;;9.10;75.30;;;;;;2110236;67;20256;-78
2022/03/01 11:12:47;;;;;;;;;;;9.10;75.20;;;;;;2097066;68;20361;-78
2022/03/01 11:15:26;;;;;;;23.92;12.15;;;9.20;76.50;;;;;;2098263;68;20226;-80
2022/03/01 11:18:24;;;;;;;16.25;12.30;;;9.20;75.20;;;;;;2090622;68;20213;-79
2022/03/01 11:21:21;;;;;;;15.20;10.48;;;9.30;74.90;;;;;;2108541;67;20198;-78
2022/03/01 11:24:01;;;;;;;;;;;9.40;74.30;;;;;;2106015;67;20186;-77
2022/03/01 11:27:10;;;;;;;14.93;11.02;;;9.50;73.70;;;;;;2121816;67;20488;-78
2022/03/01 11:29:47;;;;;;;16.35;11.02;;;9.00;73.00;;;;;;2124920;67;20184;-80
2022/03/01 11:32:44;;;;;;;17.38;10.52;;;9.60;72.60;;;;;;2136809;66;20182;-80
2022/03/01 11:35:27;;;;;;;18.60;12.32;;;10.00;73.10;;;;;;2156468;66;20180;-81
2022/03/01 11:38:14;;;;;;;15.93;11.82;;;9.80;73.30;;;;;;2161213;65;20256;-80
2022/03/01 11:40:51;;;;;;;15.85;11.88;;;9.90;73.60;;;;;;2173495;65;20275;-79
2022/03/01 11:43:31;;;;;;;14.38;11.93;;;10.00;72.80;;;;;;2174855;65;20184;-81
2022/03/01 11:46:17;;;;;;;16.00;11.25;;;10.10;72.90;;;;;;2187887;65;20365;-77
2022/03/01 11:48:59;;;;;;;15.65;11.50;;;10.00;72.10;;;;;;2188985;65;20186;-77
2022/03/01 11:52:02;;;;;;;16.90;12.20;;;10.50;71.80;;;;;;2195269;65;20370;-77
2022/03/01 11:54:43;;;;;;;17.20;11.48;;;9.90;71.00;;;;;;2197656;65;20341;-79
2022/03/01 11:57:29;;;;;;;16.23;11.48;;;9.70;71.20;;;;;;2197262;65;20196;-78
2022/03/01 12:00:26;;;;;;;16.67;12.47;;;9.60;71.60;;;;;;2188193;65;20836;-77
2022/03/01 12:03:04;;;;;;;14.65;11.73;;;9.50;71.20;;;;;;2188924;65;20334;-78
2022/03/01 12:05:48;;;;;;;19.63;13.00;;;9.40;71.40;;;;;;2190180;65;20218;-78
2022/03/01 12:08:29;;;;;;;17.25;12.00;;;9.90;72.40;;;;;;2191664;65;20229;-77
2022/03/01 12:11:11;;;;;;;18.27;12.45;;;9.70;72.40;;;;;;2174798;65;20196;-78
2022/03/01 12:14:03;;;;;;;17.88;13.13;;;9.10;72.10;;;;;;2160640;66;20676;-78
2022/03/01 12:16:45;;;;;;;14.75;11.77;;;9.10;72.40;;;;;;2145977;66;20330;-77
2022/03/01 12:19:34;;;;;;;17.65;12.80;;;9.00;73.10;;;;;;2131862;67;20346;-77
2022/03/01 12:22:19;;;;;;;18.23;11.95;;;9.00;73.70;;;;;;2109959;67;20343;-78
2022/03/01 12:25:02;;;;;;;15.30;12.02;;;8.90;74.00;;;;;;2123648;67;20261;-77
2022/03/01 12:27:45;;;;;;;18.95;12.20;;;8.90;73.80;;;;;;2119332;67;20790;-78
2022/03/01 12:30:27;;;;;;;18.08;12.23;;;8.80;74.20;;;;;;2117408;67;20265;-79
2022/03/01 12:33:17;;;;;;;17.63;13.15;;;9.30;74.80;;;;;;2102645;67;20392;-78
2022/03/01 12:36:03;;;;;;;18.63;12.50;;;9.00;75.20;;;;;;2108337;67;20503;-79
2022/03/01 12:38:56;;;;;;;18.10;12.48;;;9.20;75.80;;;;;;2103415;67;20221;-79
2022/03/01 12:41:46;;;;;;;16.08;11.55;;;9.30;75.60;;;;;;2092502;68;20675;-80
2022/03/01 12:44:36;;;;;;;15.43;12.00;;;9.40;74.70;;;;;;2079811;68;20288;-80
2022/03/01 12:47:18;;;;;;;17.23;12.55;;;9.50;73.90;;;;;;2080221;68;20164;-79
2022/03/01 12:50:03;;;;;;;16.70;12.00;;;9.50;73.60;;;;;;2081664;68;20197;-80
2022/03/01 12:52:56;;;;;;;17.15;12.80;;;9.00;73.60;;;;;;2090685;68;20175;-78
2022/03/01 12:55:43;;;;;;;18.10;13.45;;;9.80;74.10;;;;;;2098447;68;20756;-77
2022/03/01 12:58:27;;;;;;;15.80;12.23;;;9.90;73.80;;;;;;2106132;67;20537;-79
2022/03/01 13:01:11;;;;;;;15.70;12.90;;;10.70;73.60;;;;;;2104204;67;20243;-79
2022/03/01 13:03:57;;;;;;;14.98;11.93;;;10.10;73.00;;;;;;2102890;67;20186;-79
2022/03/01 13:06:45;;;;;;;17.38;13.38;;;10.30;72.50;;;;;;2115471;67;20228;-78
2022/03/01 13:09:27;;;;;;;18.73;13.25;;;10.40;72.30;;;;;;2110905;67;20258;-79
2022/03/01 13:12:12;;;;;;;16.15;12.38;;;10.60;72.00;;;;;;2109367;67;20206;-80
2022/03/01 13:14:58;;;;;;;17.80;12.77;;;10.90;71.70;;;;;;2112191;67;20382;-78
2022/03/01 13:18:10;;;;;;;20.95;13.50;;;11.30;70.40;;;;;;2116716;67;20172;-79
2022/03/01 13:20:53;;;;;;;15.80;12.55;;;11.60;69.00;;;;;;2104515;67;20182;-79
2022/03/01 13:23:38;;;;;;;18.27;13.23;;;11.60;68.60;;;;;;2108239;67;20777;-78
2022/03/01 13:26:15;;;;;;;19.63;12.85;;;11.60;67.80;;;;;;2111342;67;20189;-80
2022/03/01 13:28:54;;;;;;;18.70;13.65;;;11.40;67.70;;;;;;2109488;67;20789;-78
2022/03/01 13:31:31;;;;;;;14.90;12.35;;;11.40;67.70;;;;;;2106209;67;20295;-80
2022/03/01 13:34:08;;;;;;;17.67;13.05;;;11.10;67.50;;;;;;2117384;67;20190;-79
2022/03/01 13:36:51;;;;;;;17.70;13.13;;;11.00;67.50;;;;;;2118289;67;20221;-79
2022/03/01 13:39:23;;;;;;;17.73;13.25;;;10.90;67.80;;;;;;2118388;67;20219;-77
2022/03/01 13:42:01;;;;;;;18.77;12.80;;;11.20;67.80;;;;;;2125128;67;20701;-79
2022/03/01 13:44:45;;;;;;;18.33;12.85;;;10.70;67.80;;;;;;2148256;66;20230;-79
2022/03/01 13:47:27;;;;;;;;;;;10.70;68.30;;;;;;2147259;66;20194;-80
2022/03/01 13:50:10;;;;;;;19.15;13.30;;;10.70;69.10;;;;;;2154645;66;20420;-81
2022/03/01 13:52:43;;;;;;;17.17;12.82;;;10.60;68.50;;;;;;2156864;66;20673;-80
2022/03/01 13:55:23;;;;;;;18.50;14.27;;;10.60;68.50;;;;;;2175810;65;20183;-80
2022/03/01 13:58:11;;;;;;;20.52;14.15;;;10.50;69.30;;;;;;2187125;65;20170;-80
2022/03/01 14:00:53;;;;;;;19.27;13.30;;;10.50;70.40;;;;;;2195290;65;20712;-78
2022/03/01 14:03:32;;;;;;;17.08;13.18;;;10.50;70.50;;;;;;2196995;65;20692;-78
2022/03/01 14:06:12;;;;;;;18.65;13.57;;;10.70;71.10;;;;;;2195132;65;20210;-79
2022/03/01 14:08:55;;;;;;;17.45;12.95;;;11.00;71.00;;;;;;2197282;65;20291;-78
2022/03/01 14:11:59;;;;;;;22.73;14.18;;;11.20;70.70;;;;;;2179265;65;20577;-77